createdAt,value
2019-05-09T00:00:27.360Z,72.17
2019-05-09T00:01:27.377Z,71.69
2019-05-09T00:02:27.395Z,71.69
2019-05-09T00:03:27.415Z,72.07
2019-05-09T00:04:27.435Z,73.12
2019-05-09T00:05:27.456Z,72.64
2019-05-09T00:06:27.475Z,71.78
2019-05-09T00:07:27.495Z,71.31
2019-05-09T00:08:27.513Z,72.36
2019-05-09T00:09:27.534Z,71.78
2019-05-09T00:10:38.391Z,72.07
2019-05-09T00:11:27.573Z,72.45
2019-05-09T00:12:27.599Z,72.36
2019-05-09T00:13:27.609Z,72.26
2019-05-09T00:14:27.636Z,72.87
2019-05-09T00:15:27.653Z,72.55
2019-05-09T00:16:27.670Z,71.41
2019-05-09T00:17:27.689Z,72.45
2019-05-09T00:18:27.707Z,72.45
2019-05-09T00:19:27.728Z,72.17
2019-05-09T00:20:27.744Z,71.88
2019-05-09T00:21:27.765Z,73.03
2019-05-09T00:22:27.785Z,73.03
2019-05-09T00:23:27.802Z,73.32
2019-05-09T00:24:27.822Z,73.12
2019-05-09T00:25:27.841Z,73.03
2019-05-09T00:26:27.866Z,73.32
2019-05-09T00:27:27.880Z,73.69
2019-05-09T00:28:27.901Z,74.27
2019-05-09T00:29:27.917Z,73.73
2019-05-09T00:30:27.936Z,73.54
2019-05-09T00:31:27.958Z,72.83
2019-05-09T00:32:27.979Z,72.83
2019-05-09T00:33:27.998Z,73.88
2019-05-09T00:34:28.016Z,73.98
2019-05-09T00:35:28.034Z,73.35
2019-05-09T00:36:28.053Z,73.79
2019-05-09T00:37:28.070Z,74.65
2019-05-09T00:38:28.089Z,74.84
2019-05-09T00:39:28.115Z,73.50
2019-05-09T00:40:28.130Z,73.98
2019-05-09T00:41:28.148Z,74.46
2019-05-09T00:42:28.166Z,73.88
2019-05-09T00:43:28.193Z,73.60
2019-05-09T00:44:28.210Z,73.98
2019-05-09T00:45:28.251Z,74.65
2019-05-09T00:46:28.246Z,75.13
2019-05-09T00:47:28.263Z,74.84
2019-05-09T00:48:28.288Z,74.84
2019-05-09T00:49:28.307Z,74.27
2019-05-09T00:50:29.629Z,73.98
2019-05-09T00:51:28.342Z,73.32
2019-05-09T00:52:28.364Z,73.98
2019-05-09T00:53:28.380Z,73.98
2019-05-09T00:54:28.399Z,74.55
2019-05-09T00:55:28.421Z,74.17
2019-05-09T00:56:28.439Z,74.55
2019-05-09T00:57:28.460Z,74.46
2019-05-09T00:58:28.476Z,74.17
2019-05-09T00:59:28.495Z,74.65
2019-05-09T01:00:28.514Z,75.22
2019-05-09T01:01:28.533Z,75.51
2019-05-09T01:02:28.551Z,75.51
2019-05-09T01:03:28.573Z,74.93
2019-05-09T01:04:28.611Z,73.98
2019-05-09T01:05:28.742Z,74.37
2019-05-09T01:06:28.674Z,72.36
2019-05-09T01:07:28.661Z,72.83
2019-05-09T01:08:28.774Z,73.60
2019-05-09T01:09:28.745Z,74.17
2019-05-09T01:10:28.811Z,74.55
2019-05-09T01:11:28.766Z,74.37
2019-05-09T01:12:28.775Z,74.84
2019-05-09T01:13:28.768Z,74.84
2019-05-09T01:14:28.810Z,74.27
2019-05-09T01:15:28.818Z,74.46
2019-05-09T01:16:28.836Z,73.88
2019-05-09T01:17:28.846Z,74.55
2019-05-09T01:18:28.868Z,75.42
2019-05-09T01:19:28.882Z,75.51
2019-05-09T01:20:28.914Z,75.79
2019-05-09T01:21:28.927Z,75.60
2019-05-09T01:22:28.945Z,76.37
2019-05-09T01:23:28.976Z,75.70
2019-05-09T01:24:28.981Z,75.98
2019-05-09T01:25:29.011Z,76.37
2019-05-09T01:26:29.017Z,76.37
2019-05-09T01:27:29.039Z,77.23
2019-05-09T01:28:29.059Z,76.75
2019-05-09T01:29:29.073Z,77.42
2019-05-09T01:30:29.096Z,77.13
2019-05-09T01:31:29.111Z,77.42
2019-05-09T01:32:29.134Z,77.99
2019-05-09T01:33:29.155Z,77.70
2019-05-09T01:34:29.176Z,77.42
2019-05-09T01:35:29.194Z,77.42
2019-05-09T01:36:29.209Z,77.42
2019-05-09T01:37:29.230Z,78.09
2019-05-09T01:38:29.246Z,77.23
2019-05-09T01:39:29.269Z,78.18
2019-05-09T01:40:29.284Z,78.18
2019-05-09T01:41:31.954Z,77.51
2019-05-09T01:42:29.323Z,77.61
2019-05-09T01:43:29.341Z,76.56
2019-05-09T01:44:29.361Z,76.52
2019-05-09T01:45:29.382Z,77.61
2019-05-09T01:46:29.401Z,77.89
2019-05-09T01:47:29.421Z,77.51
2019-05-09T01:48:29.439Z,77.70
2019-05-09T01:49:29.459Z,78.47
2019-05-09T01:50:29.477Z,77.99
2019-05-09T01:51:29.502Z,77.89
2019-05-09T01:52:29.514Z,78.14
2019-05-09T01:53:29.535Z,77.86
2019-05-09T01:54:29.557Z,78.18
2019-05-09T01:55:29.574Z,77.89
2019-05-09T01:56:29.591Z,77.38
2019-05-09T01:57:29.611Z,77.47
2019-05-09T01:58:29.634Z,77.95
2019-05-09T01:59:29.650Z,77.38
2019-05-09T02:00:29.674Z,77.57
2019-05-09T02:01:29.688Z,77.38
2019-05-09T02:02:29.710Z,77.38
2019-05-09T02:03:29.729Z,77.28
2019-05-09T02:04:29.745Z,77.28
2019-05-09T02:05:29.769Z,77.95
2019-05-09T02:06:29.782Z,77.28
2019-05-09T02:07:29.806Z,76.04
2019-05-09T02:08:29.826Z,75.76
2019-05-09T02:09:29.841Z,76.52
2019-05-09T02:10:29.861Z,76.42
2019-05-09T02:11:40.157Z,77.28
2019-05-09T02:12:29.907Z,76.90
2019-05-09T02:13:29.918Z,76.33
2019-05-09T02:14:29.933Z,75.66
2019-05-09T02:15:29.954Z,76.04
2019-05-09T02:16:29.974Z,76.23
2019-05-09T02:17:29.994Z,76.42
2019-05-09T02:18:30.023Z,76.23
2019-05-09T02:19:30.034Z,76.52
2019-05-09T02:20:30.057Z,76.42
2019-05-09T02:21:30.070Z,76.62
2019-05-09T02:22:30.087Z,75.76
2019-05-09T02:23:30.108Z,76.52
2019-05-09T02:24:30.127Z,75.66
2019-05-09T02:25:30.146Z,75.47
2019-05-09T02:26:30.166Z,75.18
2019-05-09T02:27:30.182Z,75.37
2019-05-09T02:28:30.205Z,75.28
2019-05-09T02:29:30.221Z,74.71
2019-05-09T02:30:30.249Z,74.90
2019-05-09T02:31:30.268Z,75.18
2019-05-09T02:32:30.280Z,75.47
2019-05-09T02:33:30.302Z,75.66
2019-05-09T02:34:30.322Z,75.57
2019-05-09T02:35:36.544Z,75.66
2019-05-09T02:36:30.357Z,76.14
2019-05-09T02:37:30.381Z,75.85
2019-05-09T02:38:30.399Z,75.28
2019-05-09T02:39:30.420Z,75.15
2019-05-09T02:40:30.432Z,75.37
2019-05-09T02:41:30.454Z,75.37
2019-05-09T02:42:30.471Z,75.28
2019-05-09T02:43:30.490Z,74.86
2019-05-09T02:44:30.512Z,75.05
2019-05-09T02:45:30.529Z,75.05
2019-05-09T02:46:30.548Z,74.67
2019-05-09T02:47:30.567Z,74.86
2019-05-09T02:48:30.586Z,74.86
2019-05-09T02:49:30.612Z,74.67
2019-05-09T02:50:30.622Z,74.19
2019-05-09T02:51:30.647Z,74.19
2019-05-09T02:52:30.660Z,74.19
2019-05-09T02:53:30.682Z,74.19
2019-05-09T02:54:30.699Z,74.67
2019-05-09T02:55:30.716Z,74.38
2019-05-09T02:56:30.738Z,74.29
2019-05-09T02:57:30.769Z,75.62
2019-05-09T02:58:30.792Z,75.05
2019-05-09T02:59:30.794Z,75.24
2019-05-09T03:00:30.813Z,75.34
2019-05-09T03:01:30.828Z,75.34
2019-05-09T03:02:30.868Z,75.62
2019-05-09T03:03:30.868Z,75.53
2019-05-09T03:04:30.893Z,75.05
2019-05-09T03:05:30.913Z,75.24
2019-05-09T03:06:30.929Z,75.72
2019-05-09T03:07:30.947Z,76.10
2019-05-09T03:08:30.966Z,75.91
2019-05-09T03:09:30.981Z,75.81
2019-05-09T03:10:31.000Z,75.91
2019-05-09T03:11:31.030Z,76.57
2019-05-09T03:12:35.544Z,76.20
2019-05-09T03:13:31.065Z,77.15
2019-05-09T03:14:31.080Z,75.91
2019-05-09T03:15:31.096Z,75.72
2019-05-09T03:16:31.114Z,75.91
2019-05-09T03:17:31.134Z,75.24
2019-05-09T03:18:31.150Z,75.91
2019-05-09T03:19:31.178Z,75.81
2019-05-09T03:20:31.189Z,75.72
2019-05-09T03:21:31.207Z,76.01
2019-05-09T03:22:31.226Z,75.81
2019-05-09T03:23:31.246Z,74.67
2019-05-09T03:24:31.266Z,74.57
2019-05-09T03:25:31.281Z,75.24
2019-05-09T03:26:31.304Z,75.24
2019-05-09T03:27:31.320Z,74.96
2019-05-09T03:28:31.337Z,75.43
2019-05-09T03:29:31.365Z,75.34
2019-05-09T03:30:31.376Z,75.43
2019-05-09T03:31:31.398Z,75.53
2019-05-09T03:32:31.427Z,75.43
2019-05-09T03:33:35.508Z,75.34
2019-05-09T03:34:31.469Z,75.34
2019-05-09T03:35:31.471Z,75.43
2019-05-09T03:36:31.486Z,75.43
2019-05-09T03:37:31.505Z,75.34
2019-05-09T03:38:31.525Z,75.91
2019-05-09T03:39:31.544Z,75.43
2019-05-09T03:40:31.564Z,75.15
2019-05-09T03:41:31.589Z,74.96
2019-05-09T03:42:43.102Z,74.57
2019-05-09T03:43:31.620Z,74.77
2019-05-09T03:44:31.638Z,75.15
2019-05-09T03:45:31.659Z,75.05
2019-05-09T03:46:31.675Z,74.63
2019-05-09T03:47:31.694Z,74.35
2019-05-09T03:48:31.716Z,74.82
2019-05-09T03:49:31.735Z,75.30
2019-05-09T03:50:31.762Z,75.30
2019-05-09T03:51:31.774Z,75.78
2019-05-09T03:52:31.789Z,75.72
2019-05-09T03:53:31.811Z,75.01
2019-05-09T03:54:31.825Z,75.91
2019-05-09T03:55:31.845Z,76.39
2019-05-09T03:56:31.869Z,75.91
2019-05-09T03:57:31.892Z,75.59
2019-05-09T03:58:31.904Z,75.20
2019-05-09T03:59:31.924Z,74.92
2019-05-09T04:00:31.938Z,75.30
2019-05-09T04:01:31.957Z,75.68
2019-05-09T04:02:31.977Z,76.06
2019-05-09T04:03:31.994Z,75.87
2019-05-09T04:04:32.014Z,76.44
2019-05-09T04:05:32.031Z,76.54
2019-05-09T04:06:32.056Z,76.86
2019-05-09T04:07:32.071Z,77.15
2019-05-09T04:08:32.091Z,77.34
2019-05-09T04:09:32.115Z,76.48
2019-05-09T04:10:32.124Z,76.25
2019-05-09T04:11:32.143Z,77.11
2019-05-09T04:12:32.162Z,76.96
2019-05-09T04:13:32.186Z,76.67
2019-05-09T04:14:32.197Z,75.91
2019-05-09T04:15:32.221Z,77.34
2019-05-09T04:16:32.250Z,77.34
2019-05-09T04:17:32.253Z,77.34
2019-05-09T04:18:32.272Z,76.20
2019-05-09T04:19:32.292Z,76.29
2019-05-09T04:20:32.312Z,77.06
2019-05-09T04:21:32.330Z,77.34
2019-05-09T04:22:32.351Z,77.25
2019-05-09T04:23:32.367Z,77.25
2019-05-09T04:24:32.387Z,77.44
2019-05-09T04:25:32.409Z,77.34
2019-05-09T04:26:32.420Z,77.15
2019-05-09T04:27:32.442Z,77.62
2019-05-09T04:28:32.460Z,77.82
2019-05-09T04:29:32.484Z,77.91
2019-05-09T04:30:32.503Z,77.91
2019-05-09T04:31:32.517Z,77.72
2019-05-09T04:32:32.539Z,78.01
2019-05-09T04:33:32.555Z,77.62
2019-05-09T04:34:32.574Z,77.91
2019-05-09T04:35:32.596Z,77.62
2019-05-09T04:36:32.614Z,77.53
2019-05-09T04:37:32.633Z,78.10
2019-05-09T04:38:32.654Z,78.01
2019-05-09T04:39:32.668Z,77.91
2019-05-09T04:40:37.714Z,78.58
2019-05-09T04:41:32.705Z,78.30
2019-05-09T04:42:35.099Z,78.10
2019-05-09T04:43:36.797Z,77.72
2019-05-09T04:44:32.763Z,78.20
2019-05-09T04:45:33.153Z,77.15
2019-05-09T04:46:32.845Z,76.77
2019-05-09T04:47:33.801Z,76.39
2019-05-09T04:48:32.840Z,76.86
2019-05-09T04:49:39.644Z,76.77
2019-05-09T04:50:32.876Z,76.64
2019-05-09T04:51:32.894Z,76.16
2019-05-09T04:52:32.910Z,76.67
2019-05-09T04:53:33.170Z,75.78
2019-05-09T04:54:32.957Z,75.91
2019-05-09T04:55:32.979Z,75.68
2019-05-09T04:56:33.002Z,75.11
2019-05-09T04:57:33.014Z,75.30
2019-05-09T04:58:33.025Z,75.72
2019-05-09T04:59:33.043Z,76.20
2019-05-09T05:00:33.062Z,75.01
2019-05-09T05:01:33.134Z,75.01
2019-05-09T05:02:33.109Z,74.25
2019-05-09T05:03:33.132Z,74.25
2019-05-09T05:04:33.140Z,73.96
2019-05-09T05:05:33.175Z,73.01
2019-05-09T05:06:33.184Z,73.11
2019-05-09T05:07:33.191Z,73.01
2019-05-09T05:08:33.209Z,74.10
2019-05-09T05:09:33.231Z,73.58
2019-05-09T05:10:33.251Z,72.92
2019-05-09T05:11:33.276Z,72.82
2019-05-09T05:12:33.329Z,73.58
2019-05-09T05:13:33.310Z,73.96
2019-05-09T05:14:33.337Z,73.58
2019-05-09T05:15:33.354Z,72.44
2019-05-09T05:16:33.361Z,73.30
2019-05-09T05:17:33.381Z,73.96
2019-05-09T05:18:33.401Z,75.53
2019-05-09T05:19:35.549Z,75.62
2019-05-09T05:20:33.443Z,75.24
2019-05-09T05:21:33.465Z,74.67
2019-05-09T05:22:33.484Z,74.57
2019-05-09T05:23:33.611Z,76.39
2019-05-09T05:24:33.524Z,75.81
2019-05-09T05:25:33.548Z,77.15
2019-05-09T05:26:33.548Z,76.96
2019-05-09T05:27:33.568Z,77.53
2019-05-09T05:28:33.589Z,76.77
2019-05-09T05:29:33.603Z,76.96
2019-05-09T05:30:33.635Z,78.20
2019-05-09T05:31:33.655Z,77.76
2019-05-09T05:32:33.777Z,79.28
2019-05-09T05:33:33.690Z,82.53
2019-05-09T05:34:33.699Z,82.43
2019-05-09T05:35:33.720Z,81.29
2019-05-09T05:36:33.750Z,81.48
2019-05-09T05:37:33.754Z,82.48
2019-05-09T05:38:33.772Z,82.67
2019-05-09T05:39:33.794Z,83.05
2019-05-09T05:40:34.056Z,82.95
2019-05-09T05:41:33.829Z,84.48
2019-05-09T05:42:33.852Z,84.34
2019-05-09T05:43:43.388Z,84.58
2019-05-09T05:44:33.888Z,84.77
2019-05-09T05:45:33.907Z,83.91
2019-05-09T05:46:33.929Z,85.53
2019-05-09T05:47:33.946Z,85.63
2019-05-09T05:48:33.974Z,86.10
2019-05-09T05:49:33.985Z,85.91
2019-05-09T05:50:34.006Z,87.10
2019-05-09T05:51:34.023Z,87.77
2019-05-09T05:52:34.042Z,87.53
2019-05-09T05:53:34.062Z,89.34
2019-05-09T05:54:34.086Z,89.73
2019-05-09T05:55:34.109Z,90.39
2019-05-09T05:56:34.128Z,91.11
2019-05-09T05:57:34.142Z,91.30
2019-05-09T05:58:34.163Z,91.16
2019-05-09T05:59:37.299Z,91.58
2019-05-09T06:00:34.207Z,92.78
2019-05-09T06:01:34.236Z,92.40
2019-05-09T06:02:34.248Z,92.25
2019-05-09T06:03:34.268Z,92.54
2019-05-09T06:04:34.285Z,92.14
2019-05-09T06:05:34.307Z,90.17
2019-05-09T06:06:34.327Z,88.49
2019-05-09T06:07:34.349Z,87.42
2019-05-09T06:08:34.378Z,86.65
2019-05-09T06:09:34.399Z,84.05
2019-05-09T06:10:34.423Z,82.31
2019-05-09T06:11:34.441Z,82.24
2019-05-09T06:12:34.599Z,79.79
2019-05-09T06:13:34.672Z,78.46
2019-05-09T06:14:34.583Z,78.69
2019-05-09T06:15:34.564Z,77.98
2019-05-09T06:16:34.628Z,78.06
2019-05-09T06:17:34.610Z,76.76
2019-05-09T06:18:34.625Z,76.90
2019-05-09T06:19:34.717Z,75.88
2019-05-09T06:20:34.679Z,74.84
2019-05-09T06:21:34.717Z,74.88
2019-05-09T06:22:34.725Z,75.90
2019-05-09T06:23:34.752Z,75.45
2019-05-09T06:24:34.769Z,74.65
2019-05-09T06:25:34.791Z,74.58
2019-05-09T06:26:34.818Z,74.40
2019-05-09T06:27:34.856Z,74.72
2019-05-09T06:28:34.869Z,72.66
2019-05-09T06:29:34.890Z,73.20
2019-05-09T06:30:40.849Z,74.74
2019-05-09T06:31:34.930Z,74.74
2019-05-09T06:32:34.955Z,74.07
2019-05-09T06:33:34.984Z,73.91
2019-05-09T06:34:34.998Z,72.60
2019-05-09T06:35:37.751Z,72.21
2019-05-09T06:36:38.605Z,72.89
2019-05-09T06:37:35.071Z,71.64
2019-05-09T06:38:37.587Z,72.68
2019-05-09T06:39:35.113Z,75.84
2019-05-09T06:40:35.149Z,77.15
2019-05-09T06:41:37.795Z,79.11
2019-05-09T06:42:37.852Z,77.73
2019-05-09T06:43:35.211Z,78.78
2019-05-09T06:44:37.325Z,79.46
2019-05-09T06:45:39.105Z,80.19
2019-05-09T06:46:37.703Z,81.20
2019-05-09T06:47:35.299Z,82.31
2019-05-09T06:48:37.626Z,84.19
2019-05-09T06:49:37.531Z,84.86
2019-05-09T06:50:35.355Z,86.07
2019-05-09T06:51:35.403Z,87.12
2019-05-09T06:52:37.502Z,87.74
2019-05-09T06:53:35.424Z,89.37
2019-05-09T06:54:35.442Z,88.42
2019-05-09T06:55:35.464Z,89.28
2019-05-09T06:56:35.483Z,89.47
2019-05-09T06:57:38.989Z,89.13
2019-05-09T06:58:35.526Z,87.35
2019-05-09T06:59:35.546Z,85.03
2019-05-09T07:00:37.758Z,81.32
2019-05-09T07:01:37.636Z,79.88
2019-05-09T07:02:35.610Z,79.15
2019-05-09T07:03:37.506Z,79.10
2019-05-09T07:04:37.939Z,78.27
2019-05-09T07:05:35.667Z,76.53
2019-05-09T07:06:38.023Z,75.65
2019-05-09T07:07:37.392Z,73.74
2019-05-09T07:08:37.938Z,76.06
2019-05-09T07:09:35.759Z,76.18
2019-05-09T07:10:37.693Z,75.61
2019-05-09T07:11:37.976Z,75.57
2019-05-09T07:12:37.828Z,76.57
2019-05-09T07:13:38.071Z,75.93
2019-05-09T07:14:39.084Z,73.33
2019-05-09T07:15:37.630Z,73.14
2019-05-09T07:16:37.619Z,72.31
2019-05-09T07:17:38.549Z,70.96
2019-05-09T07:18:38.151Z,70.80
2019-05-09T07:19:38.329Z,70.61
2019-05-09T07:20:37.885Z,70.48
2019-05-09T07:21:37.577Z,70.80
2019-05-09T07:22:38.997Z,70.76
2019-05-09T07:23:37.301Z,73.01
2019-05-09T07:24:37.781Z,74.19
2019-05-09T07:25:37.789Z,74.50
2019-05-09T07:26:37.373Z,76.39
2019-05-09T07:27:38.828Z,77.44
2019-05-09T07:28:37.669Z,79.53
2019-05-09T07:29:37.605Z,81.49
2019-05-09T07:30:37.577Z,81.35
2019-05-09T07:31:37.875Z,82.26
2019-05-09T07:32:38.207Z,81.34
2019-05-09T07:33:38.338Z,80.94
2019-05-09T07:34:38.239Z,77.61
2019-05-09T07:35:38.241Z,76.94
2019-05-09T07:36:38.368Z,77.09
2019-05-09T07:37:37.964Z,77.00
2019-05-09T07:38:38.447Z,77.86
2019-05-09T07:39:37.988Z,77.76
2019-05-09T07:40:38.463Z,78.36
2019-05-09T07:41:38.436Z,81.16
2019-05-09T07:42:38.882Z,82.26
2019-05-09T07:43:38.443Z,81.05
2019-05-09T07:44:46.250Z,80.22
2019-05-09T07:45:38.401Z,78.69
2019-05-09T07:46:38.436Z,77.48
2019-05-09T07:47:38.549Z,77.71
2019-05-09T07:48:38.117Z,76.07
2019-05-09T07:49:37.750Z,77.42
2019-05-09T07:50:38.861Z,77.51
2019-05-09T07:51:37.327Z,77.33
2019-05-09T07:52:38.810Z,76.65
2019-05-09T07:53:37.974Z,75.44
2019-05-09T07:54:37.750Z,76.52
2019-05-09T07:55:37.856Z,77.15
2019-05-09T07:56:37.836Z,77.83
2019-05-09T07:57:44.902Z,79.52
2019-05-09T07:58:37.737Z,79.52
2019-05-09T07:59:38.789Z,78.84
2019-05-09T08:00:38.544Z,79.61
2019-05-09T08:01:38.430Z,79.42
2019-05-09T08:02:38.699Z,80.57
2019-05-09T08:03:38.452Z,80.24
2019-05-09T08:04:38.576Z,81.68
2019-05-09T08:05:38.588Z,81.87
2019-05-09T08:06:37.964Z,82.74
2019-05-09T08:07:38.091Z,82.65
2019-05-09T08:08:38.451Z,83.27
2019-05-09T08:09:38.709Z,82.65
2019-05-09T08:10:38.559Z,83.58
2019-05-09T08:11:37.715Z,84.38
2019-05-09T08:12:38.885Z,84.77
2019-05-09T08:13:39.234Z,83.70
2019-05-09T08:14:37.869Z,82.54
2019-05-09T08:15:38.395Z,81.16
2019-05-09T08:16:37.954Z,81.54
2019-05-09T08:17:38.189Z,81.54
2019-05-09T08:18:37.603Z,82.27
2019-05-09T08:19:38.042Z,81.31
2019-05-09T08:20:40.438Z,82.51
2019-05-09T08:21:38.391Z,83.47
2019-05-09T08:22:41.249Z,83.37
2019-05-09T08:23:37.976Z,81.93
2019-05-09T08:24:38.009Z,81.20
2019-05-09T08:25:38.244Z,80.38
2019-05-09T08:26:39.589Z,78.94
2019-05-09T08:27:37.835Z,79.11
2019-05-09T08:28:38.957Z,77.58
2019-05-09T08:29:38.671Z,77.96
2019-05-09T08:30:40.238Z,77.58
2019-05-09T08:31:40.070Z,78.21
2019-05-09T08:32:37.942Z,79.55
2019-05-09T08:33:38.258Z,79.52
2019-05-09T08:34:37.925Z,79.94
2019-05-09T08:35:38.281Z,77.59
2019-05-09T08:36:38.467Z,77.78
2019-05-09T08:37:39.077Z,78.30
2019-05-09T08:38:38.931Z,78.63
2019-05-09T08:39:38.395Z,77.96
2019-05-09T08:40:38.396Z,77.76
2019-05-09T08:41:38.431Z,79.79
2019-05-09T08:42:37.981Z,78.53
2019-05-09T08:43:37.769Z,77.48
2019-05-09T08:44:39.022Z,77.38
2019-05-09T08:45:38.409Z,77.73
2019-05-09T08:46:37.890Z,78.45
2019-05-09T08:47:38.324Z,78.65
2019-05-09T08:48:38.016Z,79.36
2019-05-09T08:49:37.852Z,79.55
2019-05-09T08:50:38.899Z,81.34
2019-05-09T08:51:50.769Z,81.24
2019-05-09T08:52:37.915Z,81.16
2019-05-09T08:53:38.171Z,81.10
2019-05-09T08:54:38.157Z,81.16
2019-05-09T08:55:38.422Z,81.54
2019-05-09T08:56:38.797Z,82.51
2019-05-09T08:57:38.007Z,81.64
2019-05-09T08:58:38.372Z,81.45
2019-05-09T08:59:38.368Z,81.45
2019-05-09T09:00:39.091Z,81.35
2019-05-09T09:02:04.483Z,81.59
2019-05-09T09:02:38.107Z,81.40
2019-05-09T09:03:38.128Z,80.01
2019-05-09T09:04:38.561Z,80.63
2019-05-09T09:05:38.434Z,81.20
2019-05-09T09:06:38.197Z,81.49
2019-05-09T09:07:38.208Z,79.96
2019-05-09T09:08:38.227Z,79.67
2019-05-09T09:09:38.247Z,79.67
2019-05-09T09:10:38.750Z,80.73
2019-05-09T09:11:38.662Z,79.96
2019-05-09T09:12:38.591Z,80.15
2019-05-09T09:13:38.321Z,79.67
2019-05-09T09:14:38.634Z,78.52
2019-05-09T09:16:02.409Z,81.07
2019-05-09T09:16:41.433Z,81.40
2019-05-09T09:17:38.726Z,81.30
2019-05-09T09:18:38.872Z,81.05
2019-05-09T09:19:38.791Z,81.53
2019-05-09T09:20:38.461Z,79.86
2019-05-09T09:21:38.972Z,79.90
2019-05-09T09:22:38.499Z,80.38
2019-05-09T09:23:44.145Z,79.71
2019-05-09T09:24:38.538Z,79.71
2019-05-09T09:25:39.062Z,80.19
2019-05-09T09:26:38.583Z,79.71
2019-05-09T09:27:38.603Z,79.32
2019-05-09T09:28:38.620Z,79.86
2019-05-09T09:29:38.637Z,80.15
2019-05-09T09:30:39.073Z,81.07
2019-05-09T09:31:38.681Z,81.87
2019-05-09T09:32:38.965Z,82.89
2019-05-09T09:33:38.718Z,81.40
2019-05-09T09:34:38.745Z,81.30
2019-05-09T09:35:38.756Z,80.91
2019-05-09T09:36:39.201Z,81.40
2019-05-09T09:37:48.546Z,81.15
2019-05-09T09:38:38.812Z,79.90
2019-05-09T09:39:44.521Z,79.36
2019-05-09T09:40:38.854Z,79.40
2019-05-09T09:41:39.004Z,79.60
2019-05-09T09:42:39.629Z,79.75
2019-05-09T09:43:38.921Z,80.04
2019-05-09T09:44:39.620Z,79.30
2019-05-09T09:45:38.949Z,79.17
2019-05-09T09:46:38.973Z,78.30
2019-05-09T09:47:40.153Z,77.53
2019-05-09T09:48:39.117Z,77.09
2019-05-09T09:49:39.028Z,76.90
2019-05-09T09:50:39.049Z,76.71
2019-05-09T09:51:39.072Z,77.58
2019-05-09T09:52:39.091Z,77.76
2019-05-09T09:53:39.111Z,76.81
2019-05-09T09:54:39.133Z,76.92
2019-05-09T09:55:39.147Z,76.54
2019-05-09T09:56:39.184Z,75.67
2019-05-09T09:57:39.188Z,75.62
2019-05-09T09:58:39.214Z,75.81
2019-05-09T09:59:41.052Z,74.85
2019-05-09T10:00:39.248Z,75.29
2019-05-09T10:01:39.269Z,75.67
2019-05-09T10:02:39.290Z,76.29
2019-05-09T10:03:39.316Z,75.13
2019-05-09T10:04:39.327Z,75.65
2019-05-09T10:05:39.348Z,75.56
2019-05-09T10:06:39.368Z,76.32
2019-05-09T10:07:39.392Z,76.75
2019-05-09T10:08:40.043Z,73.99
2019-05-09T10:09:39.429Z,72.42
2019-05-09T10:10:39.447Z,72.52
2019-05-09T10:11:39.469Z,72.42
2019-05-09T10:12:44.339Z,72.44
2019-05-09T10:13:39.508Z,74.04
2019-05-09T10:14:39.532Z,74.33
2019-05-09T10:15:39.557Z,74.55
2019-05-09T10:16:39.578Z,75.20
2019-05-09T10:17:39.588Z,75.62
2019-05-09T10:18:39.613Z,75.27
2019-05-09T10:19:39.630Z,74.69
2019-05-09T10:20:39.655Z,72.67
2019-05-09T10:21:39.669Z,74.40
2019-05-09T10:22:46.296Z,74.79
2019-05-09T10:23:39.713Z,74.44
2019-05-09T10:24:39.733Z,72.52
2019-05-09T10:25:39.752Z,72.52
2019-05-09T10:26:39.770Z,72.90
2019-05-09T10:27:39.795Z,73.86
2019-05-09T10:28:39.810Z,74.02
2019-05-09T10:29:39.831Z,73.83
2019-05-09T10:30:39.850Z,74.21
2019-05-09T10:31:39.875Z,73.69
2019-05-09T10:32:39.892Z,73.92
2019-05-09T10:33:39.913Z,73.83
2019-05-09T10:34:39.933Z,74.11
2019-05-09T10:35:39.950Z,74.98
2019-05-09T10:36:39.973Z,74.50
2019-05-09T10:37:39.994Z,73.98
2019-05-09T10:38:40.014Z,75.71
2019-05-09T10:39:40.034Z,76.15
2019-05-09T10:40:40.531Z,74.62
2019-05-09T10:41:40.070Z,73.85
2019-05-09T10:42:40.092Z,74.17
2019-05-09T10:43:40.117Z,74.11
2019-05-09T10:44:40.130Z,72.58
2019-05-09T10:45:41.074Z,72.48
2019-05-09T10:46:52.568Z,71.52
2019-05-09T10:47:40.191Z,73.18
2019-05-09T10:48:40.214Z,74.75
2019-05-09T10:49:40.232Z,73.60
2019-05-09T10:50:44.272Z,72.83
2019-05-09T10:51:40.271Z,73.11
2019-05-09T10:52:40.290Z,72.48
2019-05-09T10:53:40.314Z,72.25
2019-05-09T10:54:40.451Z,72.16
2019-05-09T10:55:40.542Z,72.48
2019-05-09T10:56:40.523Z,71.81
2019-05-09T10:57:42.445Z,71.55
2019-05-09T10:58:40.421Z,70.62
2019-05-09T10:59:40.532Z,69.82
2019-05-09T11:00:40.461Z,69.76
2019-05-09T11:01:40.485Z,69.99
2019-05-09T11:02:40.491Z,68.74
2019-05-09T11:03:40.547Z,70.09
2019-05-09T11:04:44.280Z,69.95
2019-05-09T11:05:40.554Z,70.62
2019-05-09T11:06:40.581Z,70.88
2019-05-09T11:07:40.601Z,70.56
2019-05-09T11:08:40.624Z,70.75
2019-05-09T11:09:40.638Z,71.48
2019-05-09T11:10:40.649Z,72.58
2019-05-09T11:11:40.860Z,72.42
2019-05-09T11:12:40.694Z,72.55
2019-05-09T11:13:40.720Z,71.24
2019-05-09T11:14:40.735Z,70.56
2019-05-09T11:15:40.837Z,69.31
2019-05-09T11:16:46.149Z,70.05
2019-05-09T11:17:40.791Z,70.72
2019-05-09T11:18:40.811Z,71.20
2019-05-09T11:19:40.834Z,71.24
2019-05-09T11:20:40.857Z,70.21
2019-05-09T11:21:40.875Z,69.45
2019-05-09T11:22:40.903Z,69.45
2019-05-09T11:23:40.913Z,69.25
2019-05-09T11:24:46.226Z,69.45
2019-05-09T11:25:40.952Z,69.31
2019-05-09T11:26:40.986Z,69.25
2019-05-09T11:27:40.995Z,70.53
2019-05-09T11:28:41.014Z,69.95
2019-05-09T11:29:41.037Z,70.15
2019-05-09T11:30:41.059Z,69.85
2019-05-09T11:31:41.079Z,69.76
2019-05-09T11:32:41.109Z,70.15
2019-05-09T11:33:41.118Z,69.51
2019-05-09T11:34:41.140Z,69.57
2019-05-09T11:35:41.184Z,70.24
2019-05-09T11:36:41.181Z,70.40
2019-05-09T11:37:41.200Z,70.34
2019-05-09T11:38:43.965Z,71.01
2019-05-09T11:39:42.268Z,71.17
2019-05-09T11:40:41.259Z,70.59
2019-05-09T11:41:41.281Z,70.88
2019-05-09T11:42:41.298Z,69.92
2019-05-09T11:43:41.324Z,69.79
2019-05-09T11:44:41.346Z,70.84
2019-05-09T11:45:41.363Z,72.64
2019-05-09T11:46:41.384Z,74.71
2019-05-09T11:47:46.228Z,75.67
2019-05-09T11:48:41.422Z,76.00
2019-05-09T11:49:41.449Z,75.81
2019-05-09T11:50:41.463Z,74.75
2019-05-09T11:51:41.484Z,74.30
2019-05-09T11:52:41.519Z,73.69
2019-05-09T11:53:41.549Z,74.11
2019-05-09T11:54:41.540Z,74.30
2019-05-09T11:55:43.365Z,73.73
2019-05-09T11:56:41.580Z,73.63
2019-05-09T11:57:41.625Z,73.25
2019-05-09T11:58:41.626Z,73.54
2019-05-09T11:59:41.640Z,73.73
2019-05-09T12:00:41.664Z,73.73
2019-05-09T12:01:41.680Z,74.34
2019-05-09T12:02:41.700Z,73.47
2019-05-09T12:03:41.721Z,72.42
2019-05-09T12:04:41.738Z,71.55
2019-05-09T12:05:41.760Z,70.24
2019-05-09T12:06:41.779Z,68.99
2019-05-09T12:07:41.799Z,69.34
2019-05-09T12:08:41.823Z,69.15
2019-05-09T12:09:41.839Z,69.31
2019-05-09T12:10:41.862Z,71.52
2019-05-09T12:11:44.551Z,71.65
2019-05-09T12:12:41.909Z,70.24
2019-05-09T12:13:41.917Z,69.34
2019-05-09T12:14:41.940Z,68.44
2019-05-09T12:15:41.961Z,69.60
2019-05-09T12:16:41.985Z,69.89
2019-05-09T12:17:56.521Z,69.82
2019-05-09T12:18:42.024Z,67.71
2019-05-09T12:19:42.047Z,67.22
2019-05-09T12:20:42.059Z,68.19
2019-05-09T12:21:47.633Z,67.51
2019-05-09T12:22:42.105Z,68.57
2019-05-09T12:23:42.244Z,68.32
2019-05-09T12:24:42.148Z,69.09
2019-05-09T12:25:42.166Z,66.97
2019-05-09T12:26:42.180Z,67.80
2019-05-09T12:27:42.202Z,67.22
2019-05-09T12:28:42.217Z,66.14
2019-05-09T12:29:42.239Z,67.32
2019-05-09T12:30:42.257Z,67.80
2019-05-09T12:31:42.280Z,68.15
2019-05-09T12:32:42.301Z,66.74
2019-05-09T12:33:42.315Z,67.19
2019-05-09T12:34:42.335Z,67.48
2019-05-09T12:35:42.357Z,68.06
2019-05-09T12:36:42.375Z,68.25
2019-05-09T12:37:42.400Z,69.18
2019-05-09T12:38:46.075Z,69.66
2019-05-09T12:39:42.443Z,70.23
2019-05-09T12:40:42.455Z,69.18
2019-05-09T12:41:42.478Z,69.75
2019-05-09T12:42:42.492Z,69.50
2019-05-09T12:43:42.513Z,68.89
2019-05-09T12:44:42.534Z,70.14
2019-05-09T12:45:42.556Z,70.33
2019-05-09T12:46:42.580Z,69.27
2019-05-09T12:47:42.598Z,69.66
2019-05-09T12:48:42.614Z,69.75
2019-05-09T12:49:42.634Z,69.79
2019-05-09T12:50:42.650Z,69.37
2019-05-09T12:51:42.670Z,68.98
2019-05-09T12:52:42.699Z,69.37